createdAt,value
2023-03-03T00:00:30.887Z,19.23
2023-03-03T00:02:59.990Z,20.38
2023-03-03T00:05:28.671Z,19.60
2023-03-03T00:07:56.389Z,20.95
2023-03-03T00:10:24.061Z,18.88
2023-03-03T00:12:51.731Z,21.05
2023-03-03T00:15:21.581Z,20.02
2023-03-03T00:17:51.333Z,19.55
2023-03-03T00:20:38.900Z,20.13
2023-03-03T00:23:14.740Z,19.80
2023-03-03T00:25:46.280Z,20.30
2023-03-03T00:28:29.345Z,21.10
2023-03-03T00:30:59.980Z,20.80
2023-03-03T00:33:28.795Z,15.60
2023-03-03T00:35:57.712Z,20.17
2023-03-03T00:38:26.284Z,20.95
2023-03-03T00:40:53.937Z,20.77
2023-03-03T00:43:25.953Z,23.05
2023-03-03T00:45:56.716Z,24.75
2023-03-03T00:48:30.920Z,19.63
2023-03-03T00:50:59.966Z,26.17
2023-03-03T00:53:29.253Z,28.10
2023-03-03T00:55:57.642Z,28.10
2023-03-03T00:58:25.545Z,23.45
2023-03-03T01:00:54.784Z,25.27
2023-03-03T01:03:27.529Z,25.35
2023-03-03T01:05:55.632Z,30.67
2023-03-03T01:08:23.431Z,31.35
2023-03-03T01:10:57.280Z,30.08
2023-03-03T01:13:30.487Z,32.05
2023-03-03T01:15:59.262Z,27.20
2023-03-03T01:18:27.281Z,27.90
2023-03-03T01:20:55.348Z,25.58
2023-03-03T01:23:28.773Z,26.50
2023-03-03T01:25:58.328Z,27.80
2023-03-03T01:28:26.052Z,31.88
2023-03-03T01:30:54.307Z,32.83
2023-03-03T01:33:22.005Z,30.83
2023-03-03T01:35:50.837Z,31.02
2023-03-03T01:38:20.129Z,32.40
2023-03-03T01:40:55.940Z,36.45
2023-03-03T01:43:29.011Z,35.58
2023-03-03T01:45:57.286Z,35.60
2023-03-03T01:48:31.046Z,34.85
2023-03-03T01:51:02.949Z,34.75
2023-03-03T01:53:34.464Z,36.63
2023-03-03T01:56:02.110Z,36.70
2023-03-03T01:58:32.483Z,38.63
2023-03-03T02:01:05.993Z,36.95
2023-03-03T02:03:33.589Z,36.20
2023-03-03T02:06:04.921Z,29.55
2023-03-03T02:11:06.247Z,23.42
2023-03-03T02:13:34.571Z,21.58
2023-03-03T02:16:02.288Z,23.63
2023-03-03T02:18:33.028Z,26.10
2023-03-03T02:21:24.173Z,23.02
2023-03-03T02:24:05.544Z,30.15
2023-03-03T02:26:37.217Z,23.95
2023-03-03T02:29:08.536Z,24.30
2023-03-03T02:31:37.663Z,22.55
2023-03-03T02:34:06.258Z,24.55
2023-03-03T02:36:36.358Z,22.75
2023-03-03T02:39:11.334Z,21.55
2023-03-03T02:41:51.532Z,24.95
2023-03-03T02:44:21.016Z,20.02
2023-03-03T02:46:49.721Z,20.88
2023-03-03T02:49:20.197Z,18.63
2023-03-03T02:51:48.520Z,18.95
2023-03-03T02:54:17.578Z,19.38
2023-03-03T02:56:45.328Z,19.17
2023-03-03T02:59:13.452Z,19.58
2023-03-03T03:01:47.092Z,19.25
2023-03-03T03:04:25.325Z,20.48
2023-03-03T03:06:54.369Z,19.98
2023-03-03T03:09:24.214Z,19.00
2023-03-03T03:17:01.780Z,20.90
2023-03-03T03:19:32.288Z,21.85
2023-03-03T03:22:02.576Z,16.40
2023-03-03T03:24:32.406Z,22.40
2023-03-03T03:27:04.328Z,21.20
2023-03-03T03:29:33.303Z,21.95
2023-03-03T03:32:01.239Z,22.23
2023-03-03T03:34:29.269Z,22.95
2023-03-03T03:37:01.900Z,22.70
2023-03-03T03:39:50.099Z,21.42
2023-03-03T03:42:19.345Z,24.80
2023-03-03T03:44:48.217Z,22.90
2023-03-03T03:47:18.053Z,23.30
2023-03-03T03:49:46.657Z,23.92
2023-03-03T03:52:14.617Z,23.55
2023-03-03T03:54:43.095Z,24.00
2023-03-03T03:57:10.728Z,22.88
2023-03-03T03:59:58.227Z,22.20
2023-03-03T04:02:27.579Z,21.75
2023-03-03T04:04:55.320Z,21.85
2023-03-03T04:07:22.883Z,23.00
2023-03-03T04:09:52.388Z,25.15
2023-03-03T04:12:20.420Z,29.23
2023-03-03T04:14:48.733Z,28.08
2023-03-03T04:17:18.089Z,25.35
2023-03-03T04:19:45.941Z,24.17
2023-03-03T04:22:15.479Z,27.35
2023-03-03T04:24:44.856Z,29.08
2023-03-03T04:27:13.556Z,27.63
2023-03-03T04:29:42.339Z,28.98
2023-03-03T04:32:10.917Z,27.80
2023-03-03T04:34:39.689Z,27.00
2023-03-03T04:37:07.384Z,29.83
2023-03-03T04:39:36.847Z,25.38
2023-03-03T04:42:04.938Z,26.05
2023-03-03T04:44:32.799Z,24.88
2023-03-03T04:47:00.488Z,25.60
2023-03-03T04:49:28.974Z,23.27
2023-03-03T04:51:57.351Z,22.08
2023-03-03T04:54:25.573Z,26.23
2023-03-03T04:56:53.233Z,25.15
2023-03-03T04:59:21.160Z,23.58
2023-03-03T05:01:51.253Z,26.45
2023-03-03T05:04:21.733Z,27.48
2023-03-03T05:06:49.439Z,29.08
2023-03-03T05:09:17.456Z,24.73
2023-03-03T05:11:45.424Z,28.13
2023-03-03T05:14:13.898Z,23.42
2023-03-03T05:16:42.282Z,26.33
2023-03-03T05:19:10.149Z,21.85
2023-03-03T05:21:42.871Z,24.77
2023-03-03T05:24:25.933Z,23.25
2023-03-03T05:26:54.033Z,25.92
2023-03-03T05:29:21.979Z,24.75
2023-03-03T05:31:49.995Z,26.40
2023-03-03T05:34:17.730Z,27.50
2023-03-03T05:36:45.398Z,24.30
2023-03-03T05:39:14.204Z,25.52
2023-03-03T05:41:42.298Z,17.13
2023-03-03T05:44:11.876Z,26.48
2023-03-03T05:46:39.507Z,26.30
2023-03-03T05:49:10.668Z,26.58
2023-03-03T05:51:38.584Z,22.38
2023-03-03T05:54:06.372Z,25.13
2023-03-03T05:56:34.060Z,23.27
2023-03-03T05:59:04.645Z,23.20
2023-03-03T06:01:33.060Z,23.15
2023-03-03T06:04:00.798Z,23.02
2023-03-03T06:06:28.606Z,24.42
2023-03-03T06:08:57.358Z,23.33
2023-03-03T06:11:27.202Z,29.00
2023-03-03T06:14:06.566Z,27.20
2023-03-03T06:16:35.396Z,26.95
2023-03-03T06:19:03.757Z,30.27
2023-03-03T06:21:31.591Z,31.35
2023-03-03T06:23:59.504Z,31.83
2023-03-03T06:26:27.397Z,34.38
2023-03-03T06:28:57.111Z,32.05
2023-03-03T06:31:25.222Z,32.63
2023-03-03T06:33:53.831Z,32.83
2023-03-03T06:36:21.718Z,36.75
2023-03-03T06:38:49.540Z,34.08
2023-03-03T06:41:17.363Z,40.20
2023-03-03T06:43:45.073Z,45.65
2023-03-03T06:46:13.310Z,41.50
2023-03-03T06:48:42.825Z,37.47
2023-03-03T06:51:23.559Z,39.72
2023-03-03T06:53:53.237Z,40.80
2023-03-03T06:56:22.263Z,53.67
2023-03-03T06:58:50.109Z,37.05
2023-03-03T07:01:17.955Z,31.45
2023-03-03T07:03:46.184Z,33.85
2023-03-03T07:06:23.209Z,35.17
2023-03-03T07:08:53.006Z,35.50
2023-03-03T07:11:23.069Z,36.08
2023-03-03T07:13:52.388Z,34.55
2023-03-03T07:16:23.197Z,32.20
2023-03-03T07:19:01.849Z,30.95
2023-03-03T07:21:39.100Z,39.90
2023-03-03T07:24:19.468Z,46.30
2023-03-03T07:26:47.377Z,37.75
2023-03-03T07:29:28.637Z,37.05
2023-03-03T07:32:01.394Z,28.70
2023-03-03T07:34:40.782Z,35.70
2023-03-03T07:37:31.037Z,60.33
2023-03-03T07:39:59.570Z,27.23
2023-03-03T07:42:40.310Z,31.85
2023-03-03T07:45:31.563Z,26.38
2023-03-03T07:48:31.424Z,28.38
2023-03-03T07:51:01.078Z,75.90
2023-03-03T07:53:35.576Z,44.58
2023-03-03T07:56:04.118Z,24.98
2023-03-03T07:58:41.582Z,34.60
2023-03-03T08:01:40.047Z,32.50
2023-03-03T08:04:21.194Z,28.92
2023-03-03T08:06:59.010Z,25.95
2023-03-03T08:09:39.781Z,27.52
2023-03-03T08:12:09.530Z,26.80
2023-03-03T08:14:38.791Z,30.23
2023-03-03T08:17:24.159Z,27.67
2023-03-03T08:19:53.235Z,25.63
2023-03-03T08:22:32.377Z,31.90
2023-03-03T08:25:00.942Z,26.75
2023-03-03T08:27:29.388Z,25.90
2023-03-03T08:29:58.171Z,30.73
2023-03-03T08:32:26.434Z,32.50
2023-03-03T08:35:00.034Z,26.48
2023-03-03T08:37:28.116Z,29.02
2023-03-03T08:39:56.269Z,77.78
2023-03-03T08:42:24.365Z,27.05
2023-03-03T08:44:52.170Z,32.63
2023-03-03T08:47:20.338Z,26.10
2023-03-03T08:49:50.607Z,47.55
2023-03-03T08:52:19.669Z,32.08
2023-03-03T08:54:49.683Z,50.17
2023-03-03T08:57:23.330Z,35.60
2023-03-03T08:59:54.596Z,36.42
2023-03-03T09:02:29.827Z,56.83
2023-03-03T09:04:58.395Z,64.82
2023-03-03T09:07:26.364Z,43.25
2023-03-03T09:09:58.390Z,60.35
2023-03-03T09:12:34.487Z,50.42
2023-03-03T09:15:36.829Z,61.88
2023-03-03T09:18:26.536Z,56.35
2023-03-03T09:20:59.202Z,55.03
2023-03-03T09:23:33.980Z,81.55
2023-03-03T09:26:31.717Z,89.45
2023-03-03T09:29:14.923Z,69.75
2023-03-03T09:31:49.553Z,64.95
2023-03-03T09:34:27.772Z,59.75
2023-03-03T09:36:55.920Z,70.22
2023-03-03T09:39:25.969Z,60.10
2023-03-03T09:42:04.772Z,42.78
2023-03-03T09:44:54.681Z,44.65
2023-03-03T09:47:25.567Z,36.10
2023-03-03T09:50:00.198Z,29.60
2023-03-03T09:52:54.636Z,30.10
2023-03-03T09:56:08.896Z,30.60
2023-03-03T09:58:50.572Z,34.65
2023-03-03T10:01:27.329Z,32.40
2023-03-03T10:03:59.132Z,29.08
2023-03-03T10:06:40.193Z,29.60
2023-03-03T10:09:33.256Z,27.50
2023-03-03T10:12:22.909Z,28.30
2023-03-03T10:14:54.009Z,28.08
2023-03-03T10:19:54.240Z,27.52
2023-03-03T10:22:25.409Z,34.17
2023-03-03T10:25:11.532Z,28.50
2023-03-03T10:28:20.231Z,23.52
2023-03-03T10:31:28.810Z,25.08
2023-03-03T10:34:02.698Z,28.60
2023-03-03T10:36:49.871Z,27.20
2023-03-03T10:39:40.089Z,23.00
2023-03-03T10:42:23.956Z,24.80
2023-03-03T10:45:21.845Z,24.10
2023-03-03T10:48:10.526Z,23.92
2023-03-03T10:50:53.669Z,21.70
2023-03-03T10:53:43.145Z,20.95
2023-03-03T10:56:52.933Z,21.25
2023-03-03T10:59:34.075Z,18.95
2023-03-03T11:02:28.023Z,13.98
2023-03-03T11:05:25.000Z,19.52
2023-03-03T11:07:59.494Z,20.63
2023-03-03T11:10:52.756Z,19.50
2023-03-03T11:13:47.425Z,20.23
2023-03-03T11:17:04.350Z,17.85
2023-03-03T11:19:34.608Z,19.15
2023-03-03T11:22:39.158Z,18.92
2023-03-03T11:25:26.809Z,15.73
2023-03-03T11:28:47.438Z,22.90
2023-03-03T11:40:57.550Z,20.15
2023-03-03T11:43:52.013Z,17.05
2023-03-03T11:46:44.075Z,22.20
2023-03-03T11:49:22.974Z,20.90
2023-03-03T11:52:00.584Z,17.70
2023-03-03T11:54:33.421Z,27.98
2023-03-03T11:57:19.844Z,21.23
2023-03-03T12:00:00.219Z,19.85
2023-03-03T12:02:32.377Z,19.58
2023-03-03T12:05:09.320Z,18.98
2023-03-03T12:08:08.150Z,20.95
2023-03-03T12:11:09.824Z,21.55
2023-03-03T12:16:57.834Z,25.40
2023-03-03T12:19:32.305Z,18.45
2023-03-03T12:22:12.373Z,20.35
2023-03-03T12:24:56.529Z,19.30
2023-03-03T12:27:33.799Z,28.98
2023-03-03T12:30:31.715Z,24.98
2023-03-03T12:33:29.089Z,25.25
2023-03-03T12:36:12.067Z,17.30
2023-03-03T12:39:04.468Z,36.83
2023-03-03T12:41:38.420Z,22.42
2023-03-03T12:44:19.247Z,27.50
2023-03-03T12:47:01.354Z,29.30
2023-03-03T12:49:44.096Z,28.02
2023-03-03T12:52:22.500Z,42.08
2023-03-03T12:55:09.032Z,44.60
2023-03-03T12:57:51.124Z,27.42
2023-03-03T13:00:39.744Z,16.23
2023-03-03T13:03:30.337Z,28.27
2023-03-03T13:06:30.236Z,25.40
2023-03-03T13:09:20.038Z,19.35
2023-03-03T13:12:01.157Z,20.02
2023-03-03T13:14:52.968Z,19.70
2023-03-03T13:17:42.754Z,20.27
2023-03-03T13:20:15.533Z,21.85
2023-03-03T13:22:54.170Z,22.08
2023-03-03T13:26:14.721Z,21.95
2023-03-03T13:29:07.409Z,22.48
2023-03-03T13:31:44.006Z,22.77
2023-03-03T13:34:37.432Z,22.45
2023-03-03T13:37:11.100Z,21.33
2023-03-03T13:40:13.928Z,19.65
2023-03-03T13:45:36.635Z,20.77
2023-03-03T13:48:22.974Z,20.77
2023-03-03T13:50:56.847Z,20.98
2023-03-03T13:53:36.419Z,20.17
2023-03-03T13:56:41.042Z,15.40
2023-03-03T13:59:35.864Z,21.08
2023-03-03T14:02:26.335Z,19.60
2023-03-03T14:05:18.674Z,24.83
2023-03-03T14:08:28.793Z,21.00
2023-03-03T14:11:12.392Z,22.73
2023-03-03T14:14:12.608Z,22.85
2023-03-03T14:17:01.411Z,20.83
2023-03-03T14:19:47.352Z,23.27
2023-03-03T14:22:33.247Z,19.95
2023-03-03T14:25:03.980Z,20.08
2023-03-03T14:27:47.070Z,18.92
2023-03-03T14:30:34.108Z,19.85
2023-03-03T14:33:01.794Z,20.00
2023-03-03T14:35:32.845Z,18.98
2023-03-03T14:38:17.196Z,18.80
2023-03-03T14:40:47.573Z,20.05
2023-03-03T14:43:26.422Z,19.98
2023-03-03T14:45:54.591Z,21.13
2023-03-03T14:48:32.766Z,22.45
2023-03-03T14:51:23.648Z,21.95
2023-03-03T14:53:51.830Z,23.40
2023-03-03T14:56:30.833Z,22.90
2023-03-03T14:59:25.927Z,25.42
2023-03-03T15:02:18.426Z,25.73
2023-03-03T15:04:47.138Z,26.45
2023-03-03T15:07:34.273Z,33.13
2023-03-03T15:10:07.850Z,27.13
2023-03-03T15:12:42.589Z,29.33
2023-03-03T15:15:11.591Z,27.17
2023-03-03T15:17:41.679Z,27.45
2023-03-03T15:20:35.076Z,25.60
2023-03-03T15:23:06.022Z,27.27
2023-03-03T15:25:53.208Z,25.73
2023-03-03T15:28:25.069Z,25.67
2023-03-03T15:31:08.194Z,25.40
2023-03-03T15:34:03.995Z,29.13
2023-03-03T15:36:51.969Z,35.88
2023-03-03T15:39:53.315Z,38.72
2023-03-03T15:42:35.920Z,30.98
2023-03-03T15:45:15.989Z,31.83
2023-03-03T15:47:49.718Z,63.05
2023-03-03T15:50:51.813Z,25.27
2023-03-03T15:53:58.350Z,25.75
2023-03-03T15:56:35.904Z,20.25
2023-03-03T15:59:28.788Z,24.00
2023-03-03T16:02:17.772Z,27.52
2023-03-03T16:08:14.009Z,33.47
2023-03-03T16:10:52.691Z,29.33
2023-03-03T16:13:49.090Z,20.65
2023-03-03T16:16:30.400Z,24.30
2023-03-03T16:19:22.438Z,21.27
2023-03-03T16:22:28.972Z,23.45
2023-03-03T16:25:34.653Z,32.20
2023-03-03T16:28:17.895Z,29.55
2023-03-03T16:31:10.879Z,27.55
2023-03-03T16:34:10.376Z,30.58
2023-03-03T16:36:55.437Z,30.98
2023-03-03T16:39:30.303Z,30.20
2023-03-03T16:42:05.540Z,24.67
2023-03-03T16:44:59.582Z,23.00
2023-03-03T16:47:49.048Z,21.15
2023-03-03T16:50:38.208Z,19.05
2023-03-03T16:53:27.857Z,20.85
2023-03-03T16:56:07.244Z,21.88
2023-03-03T16:58:53.311Z,21.40
2023-03-03T17:01:29.035Z,25.30
2023-03-03T17:04:01.624Z,20.73
2023-03-03T17:06:34.315Z,20.55
2023-03-03T17:09:02.094Z,21.38
2023-03-03T17:11:38.922Z,20.00
2023-03-03T17:14:25.089Z,19.80
2023-03-03T17:17:16.385Z,18.48
2023-03-03T17:19:49.657Z,21.52
2023-03-03T17:22:37.753Z,22.33
2023-03-03T17:25:17.757Z,23.15
2023-03-03T17:27:59.327Z,24.83
2023-03-03T17:30:34.247Z,26.15
2023-03-03T17:33:20.494Z,27.35
2023-03-03T17:36:31.363Z,25.38
2023-03-03T17:39:27.146Z,31.25
2023-03-03T17:41:58.861Z,31.17
2023-03-03T17:44:54.778Z,29.27
2023-03-03T17:47:34.334Z,28.17
2023-03-03T17:50:21.265Z,27.87
2023-03-03T17:53:13.417Z,22.73
2023-03-03T17:56:03.240Z,26.27
2023-03-03T17:58:50.249Z,31.35
2023-03-03T18:01:56.564Z,24.17
2023-03-03T18:04:43.653Z,24.05
2023-03-03T18:07:14.519Z,21.13
2023-03-03T18:12:19.158Z,17.65
2023-03-03T18:15:03.138Z,22.10
2023-03-03T18:17:37.621Z,17.98
2023-03-03T18:20:30.525Z,19.52
2023-03-03T18:22:58.810Z,21.55
2023-03-03T18:25:55.275Z,22.55
2023-03-03T18:28:23.920Z,21.92
2023-03-03T18:31:03.148Z,18.30
2023-03-03T18:33:35.055Z,20.08
2023-03-03T18:36:29.445Z,19.65
2023-03-03T18:38:57.865Z,21.55
2023-03-03T18:41:34.501Z,23.00
2023-03-03T18:44:12.646Z,24.48
2023-03-03T18:46:43.413Z,22.98
2023-03-03T18:49:12.763Z,20.60
2023-03-03T18:54:13.852Z,21.60
2023-03-03T18:56:43.625Z,22.77
2023-03-03T18:59:31.376Z,29.73
2023-03-03T19:02:18.884Z,45.78
2023-03-03T19:05:07.609Z,22.75
2023-03-03T19:07:41.600Z,29.77
2023-03-03T19:10:21.686Z,25.73
2023-03-03T19:12:49.467Z,25.30
2023-03-03T19:15:31.143Z,28.90
2023-03-03T19:18:02.201Z,23.90
2023-03-03T19:21:03.415Z,23.75
2023-03-03T19:23:52.792Z,16.27
2023-03-03T19:26:26.454Z,18.02
2023-03-03T19:29:09.561Z,21.13
2023-03-03T19:32:06.539Z,15.30
2023-03-03T19:34:41.654Z,17.45
2023-03-03T19:37:38.663Z,24.20
2023-03-03T19:40:35.102Z,16.80
2023-03-03T19:43:39.796Z,21.65
2023-03-03T19:46:32.085Z,22.80
2023-03-03T19:49:27.428Z,20.95
2023-03-03T19:52:26.157Z,29.10
2023-03-03T19:55:13.317Z,18.35
2023-03-03T19:58:01.864Z,19.60
2023-03-03T20:00:38.321Z,28.55
2023-03-03T20:03:39.738Z,27.60
2023-03-03T20:06:29.349Z,19.27
2023-03-03T20:09:03.752Z,18.65
2023-03-03T20:11:59.427Z,25.83
2023-03-03T20:14:36.931Z,18.58
2023-03-03T20:17:16.896Z,21.35
2023-03-03T20:22:44.396Z,28.17
2023-03-03T20:25:15.706Z,21.80
2023-03-03T20:28:05.686Z,39.28
2023-03-03T20:30:56.297Z,59.92
2023-03-03T20:33:39.176Z,25.65
2023-03-03T20:36:17.099Z,22.85
2023-03-03T20:38:58.762Z,19.38
2023-03-03T20:41:41.573Z,26.08
2023-03-03T20:44:15.307Z,17.35
2023-03-03T20:47:03.976Z,22.58
2023-03-03T20:49:53.201Z,21.52
2023-03-03T20:52:39.480Z,22.38
2023-03-03T20:55:31.683Z,21.45
2023-03-03T20:58:18.028Z,21.00
2023-03-03T21:01:09.612Z,18.95
2023-03-03T21:03:39.255Z,20.50
2023-03-03T21:06:09.547Z,23.48
2023-03-03T21:08:42.053Z,22.08
2023-03-03T21:11:17.601Z,14.00
2023-03-03T21:13:54.405Z,23.20
2023-03-03T21:16:22.932Z,21.23
2023-03-03T21:19:10.700Z,18.27
2023-03-03T21:21:42.829Z,25.23
2023-03-03T21:24:13.303Z,19.25
2023-03-03T21:26:50.508Z,20.23
2023-03-03T21:29:30.288Z,18.38
2023-03-03T21:32:02.503Z,19.15
2023-03-03T21:34:38.662Z,17.02
2023-03-03T21:37:10.842Z,27.33
2023-03-03T21:39:44.873Z,19.02
2023-03-03T21:42:16.754Z,20.38
2023-03-03T21:44:51.795Z,54.50
2023-03-03T21:47:23.356Z,34.08
2023-03-03T21:50:00.380Z,62.22
2023-03-03T21:52:28.112Z,27.50
2023-03-03T21:54:56.152Z,38.30
2023-03-03T21:57:26.967Z,20.33
2023-03-03T21:59:54.871Z,23.75
2023-03-03T22:02:22.540Z,29.85
2023-03-03T22:04:50.735Z,38.53
2023-03-03T22:07:18.586Z,37.28
2023-03-03T22:09:47.889Z,17.40
2023-03-03T22:12:15.711Z,16.83
2023-03-03T22:14:43.379Z,19.58
2023-03-03T22:17:12.141Z,23.98
2023-03-03T22:19:39.967Z,20.85
2023-03-03T22:22:07.587Z,27.50
2023-03-03T22:24:35.340Z,20.27
2023-03-03T22:27:03.625Z,20.80
2023-03-03T22:29:31.761Z,11.52
2023-03-03T22:32:02.779Z,19.08
2023-03-03T22:36:58.452Z,25.02
2023-03-03T22:41:57.678Z,14.65
2023-03-03T22:44:25.282Z,16.08
2023-03-03T22:46:53.140Z,23.52
2023-03-03T22:49:23.486Z,14.05
2023-03-03T22:51:52.615Z,15.98
2023-03-03T22:54:21.866Z,16.83
2023-03-03T22:56:49.873Z,23.83
2023-03-03T22:59:17.682Z,18.00
2023-03-03T23:01:48.250Z,16.55
2023-03-03T23:04:16.855Z,19.42
2023-03-03T23:06:47.245Z,18.70
2023-03-03T23:09:15.454Z,22.60
2023-03-03T23:11:44.252Z,21.00
2023-03-03T23:14:12.171Z,21.20
2023-03-03T23:16:40.069Z,19.10
2023-03-03T23:19:08.919Z,22.60
2023-03-03T23:21:37.761Z,14.52
2023-03-03T23:24:05.816Z,14.52
2023-03-03T23:26:34.724Z,14.55
2023-03-03T23:29:02.409Z,17.63
2023-03-03T23:31:30.735Z,13.52
2023-03-03T23:33:59.599Z,17.10
2023-03-03T23:36:27.193Z,17.98
2023-03-03T23:38:55.184Z,16.73
2023-03-03T23:41:23.160Z,18.48
2023-03-03T23:43:50.846Z,14.85
2023-03-03T23:46:24.278Z,19.33
2023-03-03T23:48:52.575Z,17.88
2023-03-03T23:51:20.235Z,22.52
2023-03-03T23:53:53.721Z,23.17
2023-03-03T23:56:21.391Z,19.38
2023-03-03T23:58:49.064Z,20.40
